Time;durP1;ratioP1;P1;durP2;ratioP2;P2;SDS_P1;SDS_P2;PMS_P1;PMS_P2;Temp;Humidity;BMP_temperature;BMP_pressure;BME280_temperature;BME280_humidity;BME280_pressure;Samples;Min_cycle;Max_cycle;Signal;HPM_P1;HPM_P2
2022/06/04 00:01:30;;;;;;;8.50;5.85;;;15.80;99.90;;;;;;5137501;28;20051;-73
2022/06/04 00:04:03;;;;;;;7.70;5.77;;;15.80;99.90;;;;;;5136463;28;20502;-77
2022/06/04 00:06:35;;;;;;;10.68;5.32;;;15.80;99.90;;;;;;5143436;28;20069;-75
2022/06/04 00:09:09;;;;;;;12.77;7.63;;;15.80;99.90;;;;;;5139213;28;20039;-75
2022/06/04 00:15:29;;;;;;;12.85;5.43;;;15.80;99.90;;;;;;5136279;28;20062;-74
2022/06/04 00:17:30;;;;;;;14.23;6.80;;;15.80;99.90;;;;;;5174041;28;20678;-77
2022/06/04 00:20:03;;;;;;;13.43;5.93;;;15.80;99.90;;;;;;5137343;28;20050;-74
2022/06/04 00:22:36;;;;;;;;;;;15.70;99.90;;;;;;5206248;28;20070;-76
2022/06/04 00:25:10;;;;;;;10.13;5.90;;;15.70;99.90;;;;;;5140930;28;19937;-75
2022/06/04 00:27:43;;;;;;;8.63;5.40;;;15.60;99.90;;;;;;5137972;28;20062;-77
2022/06/04 00:30:15;;;;;;;12.50;7.15;;;15.60;99.90;;;;;;5153975;28;20063;-74
2022/06/04 00:32:48;;;;;;;8.50;5.93;;;15.60;99.90;;;;;;5141377;28;20043;-75
2022/06/04 00:35:21;;;;;;;18.48;7.90;;;15.50;99.90;;;;;;5140944;28;20841;-76
2022/06/04 00:37:54;;;;;;;12.20;6.68;;;15.50;99.90;;;;;;5145053;28;20425;-74
2022/06/04 00:40:35;;;;;;;8.50;5.43;;;15.50;99.90;;;;;;5142104;28;20639;-74
2022/06/04 00:43:07;;;;;;;13.18;6.32;;;15.40;99.90;;;;;;5136761;28;20042;-76
2022/06/04 00:46:15;;;;;;;14.43;6.90;;;15.40;99.90;;;;;;5136989;28;20050;-75
2022/06/04 00:48:48;;;;;;;10.57;6.50;;;15.40;99.90;;;;;;5139917;28;20038;-78
2022/06/04 00:51:23;;;;;;;13.55;8.57;;;15.40;99.90;;;;;;5139876;28;20092;-75
2022/06/04 00:53:56;;;;;;;8.57;6.03;;;15.30;99.90;;;;;;5140293;28;20049;-75
2022/06/04 00:57:01;;;;;;;9.00;5.90;;;15.30;99.90;;;;;;5139192;28;20050;-76
2022/06/04 00:59:55;;;;;;;11.68;6.95;;;15.30;99.90;;;;;;5113035;28;20046;-74
2022/06/04 01:02:44;;;;;;;15.38;7.10;;;15.30;99.90;;;;;;5137347;28;20042;-75
2022/06/04 01:05:41;;;;;;;13.73;5.97;;;15.30;99.90;;;;;;5212989;28;20043;-75
2022/06/04 01:08:32;;;;;;;11.10;6.22;;;15.20;99.90;;;;;;5138221;28;20497;-75
2022/06/04 01:11:36;;;;;;;12.07;6.13;;;15.20;99.90;;;;;;5138240;28;20050;-75
2022/06/04 01:14:44;;;;;;;11.98;6.00;;;15.20;99.90;;;;;;5218210;28;20104;-76
2022/06/04 01:17:29;;;;;;;12.57;6.50;;;15.10;99.90;;;;;;5140720;28;20050;-78
2022/06/04 01:20:10;;;;;;;11.80;5.60;;;15.10;99.90;;;;;;5137970;28;20662;-76
2022/06/04 01:23:19;;;;;;;12.48;6.22;;;15.10;99.90;;;;;;5138957;28;20054;-79
2022/06/04 01:26:16;;;;;;;8.93;5.43;;;15.10;99.90;;;;;;5138137;28;20046;-78
2022/06/04 01:28:53;;;;;;;8.25;5.60;;;15.10;99.90;;;;;;5193352;28;20062;-75
2022/06/04 01:31:39;;;;;;;11.80;7.22;;;15.10;99.90;;;;;;5139727;28;20051;-75
2022/06/04 01:34:18;;;;;;;17.95;6.45;;;15.20;99.90;;;;;;5135914;28;20047;-75
2022/06/04 01:36:59;;;;;;;10.35;6.32;;;15.20;99.90;;;;;;5137269;28;20046;-77
2022/06/04 01:42:33;;;;;;;8.07;5.47;;;15.10;99.90;;;;;;5204780;28;20058;-75
2022/06/04 01:45:10;;;;;;;9.75;6.30;;;15.00;99.90;;;;;;5138828;28;20519;-76
2022/06/04 01:47:46;;;;;;;11.98;6.15;;;15.00;99.90;;;;;;5136684;28;21672;-75
2022/06/04 01:50:25;;;;;;;8.52;5.93;;;15.00;99.90;;;;;;5136898;28;20054;-75
2022/06/04 01:53:00;;;;;;;16.52;8.80;;;15.00;99.90;;;;;;5137436;28;20133;-76
2022/06/04 01:55:49;;;;;;;14.60;6.82;;;14.90;99.90;;;;;;5136948;28;20058;-76
2022/06/04 01:58:32;;;;;;;11.93;5.93;;;14.90;99.90;;;;;;5137747;28;20054;-76
2022/06/04 02:01:10;;;;;;;6.97;5.68;;;14.90;99.90;;;;;;5135477;28;20065;-80
2022/06/04 02:04:00;;;;;;;8.02;5.60;;;15.00;99.90;;;;;;5139676;28;20073;-80
2022/06/04 02:06:41;;;;;;;10.00;5.80;;;14.90;99.90;;;;;;5152682;28;20046;-76
2022/06/04 02:09:16;;;;;;;10.18;5.75;;;14.90;99.90;;;;;;5147692;28;20053;-78
2022/06/04 02:11:55;;;;;;;9.77;5.60;;;14.90;99.90;;;;;;5138651;28;20039;-76
2022/06/04 02:14:27;;;;;;;8.07;5.70;;;14.80;99.90;;;;;;5142488;28;20146;-75
2022/06/04 02:17:10;;;;;;;9.57;6.63;;;14.80;99.90;;;;;;5138411;28;20047;-76
2022/06/04 02:19:43;;;;;;;10.65;6.43;;;14.80;99.90;;;;;;5136373;28;20054;-76
2022/06/04 02:22:16;;;;;;;7.30;5.78;;;14.70;99.90;;;;;;5139797;28;20050;-75
2022/06/04 02:24:48;;;;;;;17.38;6.32;;;14.70;99.90;;;;;;5139902;28;20494;-77
2022/06/04 02:27:21;;;;;;;7.57;5.15;;;14.70;99.90;;;;;;5135361;28;20506;-76
2022/06/04 02:29:54;;;;;;;5.90;4.88;;;14.70;99.90;;;;;;5168068;28;20055;-76
2022/06/04 02:33:04;;;;;;;12.65;4.97;;;14.70;99.90;;;;;;5137699;28;20062;-77
2022/06/04 02:35:58;;;;;;;6.45;4.97;;;14.60;99.90;;;;;;5139772;28;20073;-76
2022/06/04 02:38:36;;;;;;;10.18;5.38;;;14.60;99.90;;;;;;5136670;28;20059;-75
2022/06/04 02:41:14;;;;;;;9.98;5.75;;;14.50;99.90;;;;;;5139956;28;20053;-77
2022/06/04 02:44:17;;;;;;;6.53;4.70;;;14.50;99.90;;;;;;5208507;28;20058;-75
2022/06/04 02:47:05;;;;;;;9.15;5.28;;;14.40;99.90;;;;;;5156409;28;20054;-75
2022/06/04 02:49:49;;;;;;;12.02;5.65;;;14.40;99.90;;;;;;5140153;28;20051;-74
2022/06/04 02:52:24;;;;;;;11.25;4.57;;;14.40;99.90;;;;;;5135750;28;20051;-78
2022/06/04 02:55:02;;;;;;;8.98;4.95;;;14.40;99.90;;;;;;5150473;28;20065;-75
2022/06/04 02:57:39;;;;;;;10.50;5.13;;;14.40;99.90;;;;;;5139960;28;20541;-74
2022/06/04 03:00:16;;;;;;;8.77;4.70;;;14.40;99.90;;;;;;5134869;28;20152;-75
2022/06/04 03:02:49;;;;;;;10.80;4.90;;;14.40;99.90;;;;;;5129107;28;20057;-74
2022/06/04 03:05:25;;;;;;;7.55;4.72;;;14.40;99.90;;;;;;5133242;28;20058;-74
2022/06/04 03:08:03;;;;;;;6.68;4.53;;;14.30;99.90;;;;;;5143631;28;20042;-74
2022/06/04 03:10:36;;;;;;;12.55;5.20;;;14.30;99.90;;;;;;5176843;28;20050;-75
2022/06/04 03:13:09;;;;;;;7.40;4.95;;;14.30;99.90;;;;;;5141263;28;20035;-74
2022/06/04 03:15:41;;;;;;;10.57;5.45;;;14.40;99.90;;;;;;5146414;28;20047;-75
2022/06/04 03:18:15;;;;;;;10.23;5.90;;;14.40;99.90;;;;;;5132560;28;20043;-73
2022/06/04 03:20:47;;;;;;;9.10;4.88;;;14.40;99.90;;;;;;5157627;28;20050;-75
2022/06/04 03:23:20;;;;;;;14.65;5.32;;;14.40;99.90;;;;;;5134287;28;20059;-75
2022/06/04 03:25:52;;;;;;;9.27;5.22;;;14.40;99.90;;;;;;5142720;28;20058;-76
2022/06/04 03:28:25;;;;;;;9.85;5.50;;;14.40;99.90;;;;;;5132381;28;20371;-76
2022/06/04 03:30:58;;;;;;;12.60;5.13;;;14.40;99.90;;;;;;5135728;28;20342;-79
2022/06/04 03:33:30;;;;;;;9.47;5.03;;;14.40;99.90;;;;;;5135277;28;20047;-75
2022/06/04 03:36:03;;;;;;;15.63;4.80;;;14.30;99.90;;;;;;5199535;28;20121;-74
2022/06/04 03:38:35;;;;;;;13.57;5.93;;;14.40;99.90;;;;;;5132004;28;20043;-75
2022/06/04 03:41:08;;;;;;;14.38;4.45;;;14.40;99.90;;;;;;5132071;28;20126;-76
2022/06/04 03:43:41;;;;;;;9.90;5.10;;;14.40;99.90;;;;;;5133772;28;20368;-75
2022/06/04 03:46:14;;;;;;;;;;;14.50;99.90;;;;;;5135165;28;20047;-76
2022/06/04 03:48:46;;;;;;;12.57;5.57;;;14.40;99.90;;;;;;5136758;28;19930;-75
2022/06/04 03:51:19;;;;;;;8.10;4.78;;;14.40;99.90;;;;;;5132320;28;20043;-77
2022/06/04 03:53:52;;;;;;;17.80;7.72;;;14.40;99.90;;;;;;5132840;28;20191;-75
2022/06/04 03:56:25;;;;;;;11.27;4.50;;;14.40;99.90;;;;;;5135088;28;20521;-79
2022/06/04 03:58:58;;;;;;;8.95;4.53;;;14.40;99.90;;;;;;5131918;28;20050;-77
2022/06/04 04:01:31;;;;;;;9.75;6.53;;;14.50;99.90;;;;;;5131038;28;20164;-79
2022/06/04 04:04:04;;;;;;;9.47;6.17;;;14.50;99.90;;;;;;5173792;28;20125;-78
2022/06/04 04:06:37;;;;;;;8.82;5.25;;;14.60;99.90;;;;;;5135135;28;20509;-73
2022/06/04 04:09:10;;;;;;;9.50;4.87;;;14.60;99.90;;;;;;5135430;28;20176;-74
2022/06/04 04:11:43;;;;;;;6.75;4.35;;;14.60;99.90;;;;;;5133896;28;20058;-76
2022/06/04 04:14:15;;;;;;;9.85;4.97;;;14.60;99.90;;;;;;5145659;28;20056;-74
2022/06/04 04:16:47;;;;;;;9.00;4.75;;;14.70;99.90;;;;;;5161687;28;20577;-76
2022/06/04 04:19:20;;;;;;;7.25;5.53;;;14.70;99.90;;;;;;5132877;28;20043;-77
2022/06/04 04:21:52;;;;;;;8.98;5.53;;;14.80;99.90;;;;;;5134373;28;20062;-76
2022/06/04 04:24:25;;;;;;;11.80;6.00;;;14.90;99.90;;;;;;5133286;28;20051;-77
2022/06/04 04:26:57;;;;;;;8.55;5.05;;;14.80;99.90;;;;;;5135402;28;20050;-74
2022/06/04 04:29:30;;;;;;;8.15;5.80;;;14.80;99.90;;;;;;5135080;28;20066;-75
2022/06/04 04:32:03;;;;;;;10.40;5.10;;;14.90;99.90;;;;;;5139440;28;20043;-74
2022/06/04 04:34:35;;;;;;;9.93;5.47;;;14.90;99.90;;;;;;5170610;28;20039;-75
2022/06/04 04:37:08;;;;;;;11.30;5.63;;;14.90;99.90;;;;;;5204784;28;20051;-77
2022/06/04 04:39:41;;;;;;;8.80;4.93;;;14.90;99.90;;;;;;5141454;28;20047;-75
2022/06/04 04:42:13;;;;;;;8.00;4.97;;;15.00;99.90;;;;;;5139114;28;20042;-75
2022/06/04 04:44:45;;;;;;;7.38;5.50;;;15.00;99.90;;;;;;5137131;28;20047;-74
2022/06/04 04:47:18;;;;;;;11.45;5.70;;;15.10;99.90;;;;;;5140433;28;20445;-75
2022/06/04 04:49:50;;;;;;;7.85;4.97;;;15.10;99.90;;;;;;5135551;28;20050;-76
2022/06/04 04:52:23;;;;;;;12.35;4.80;;;15.10;99.90;;;;;;5137687;28;20046;-75
2022/06/04 04:54:55;;;;;;;10.82;5.80;;;15.30;99.90;;;;;;5145280;28;20061;-77
2022/06/04 04:57:28;;;;;;;11.18;5.95;;;15.30;99.90;;;;;;5137615;28;20051;-75
2022/06/04 05:00:00;;;;;;;9.65;6.13;;;15.40;99.90;;;;;;5139144;28;20054;-75
2022/06/04 05:02:33;;;;;;;7.72;5.78;;;15.50;99.90;;;;;;5135534;28;20066;-75
2022/06/04 05:05:06;;;;;;;14.63;5.47;;;15.60;99.90;;;;;;5139259;28;20054;-78
2022/06/04 05:07:40;;;;;;;12.02;5.90;;;15.70;99.90;;;;;;5134447;28;20042;-76
2022/06/04 05:10:13;;;;;;;;;;;15.80;99.90;;;;;;5134338;28;20054;-76
2022/06/04 05:12:49;;;;;;;10.90;5.43;;;15.80;99.90;;;;;;5136471;28;19926;-77
2022/06/04 05:15:22;;;;;;;8.90;5.15;;;15.90;99.90;;;;;;5214331;28;20062;-75
2022/06/04 05:17:55;;;;;;;8.50;5.20;;;16.00;99.90;;;;;;5134104;28;20100;-75
2022/06/04 05:20:28;;;;;;;7.93;4.75;;;16.10;99.90;;;;;;5136833;28;20065;-75
2022/06/04 05:23:01;;;;;;;10.20;5.95;;;16.20;99.90;;;;;;5135322;28;20062;-76
2022/06/04 05:25:33;;;;;;;14.55;5.30;;;16.30;99.90;;;;;;5136226;28;20058;-76
2022/06/04 05:28:07;;;;;;;9.52;5.68;;;16.40;99.90;;;;;;5134418;28;20066;-74
2022/06/04 05:30:40;;;;;;;10.77;5.30;;;16.50;99.90;;;;;;5138286;28;20047;-76
2022/06/04 05:33:12;;;;;;;13.35;5.55;;;16.50;99.90;;;;;;5132959;28;20055;-77
2022/06/04 05:35:45;;;;;;;6.68;4.50;;;16.60;99.90;;;;;;5136031;28;20046;-75
2022/06/04 05:38:17;;;;;;;11.93;5.32;;;16.70;99.90;;;;;;5138229;28;20053;-76
2022/06/04 05:40:57;;;;;;;10.13;5.35;;;16.80;99.90;;;;;;5135686;28;20066;-75
2022/06/04 05:43:29;;;;;;;5.75;4.32;;;16.80;99.90;;;;;;5135843;28;20596;-75
2022/06/04 05:46:06;;;;;;;9.18;4.85;;;16.90;99.90;;;;;;5189706;28;20035;-77
2022/06/04 05:48:41;;;;;;;11.05;5.15;;;17.00;99.90;;;;;;5133825;28;20061;-75
2022/06/04 05:51:17;;;;;;;10.57;4.75;;;17.10;99.90;;;;;;5135844;28;20050;-77
2022/06/04 05:53:51;;;;;;;12.10;5.93;;;17.20;99.90;;;;;;5139190;28;20082;-77
2022/06/04 05:56:30;;;;;;;10.63;5.88;;;17.30;99.90;;;;;;5137978;28;20049;-76
2022/06/04 05:59:06;;;;;;;13.63;6.28;;;17.40;99.90;;;;;;5136575;28;21073;-75
2022/06/04 06:01:40;;;;;;;18.05;6.70;;;17.50;99.90;;;;;;5134728;28;20046;-78
2022/06/04 06:04:15;;;;;;;7.28;5.13;;;17.60;99.90;;;;;;5176464;28;20422;-75
2022/06/04 06:06:50;;;;;;;6.13;4.63;;;17.70;99.90;;;;;;5132951;28;20046;-76
2022/06/04 06:09:24;;;;;;;6.32;4.40;;;17.70;99.90;;;;;;5139118;28;20414;-75
2022/06/04 06:11:57;;;;;;;11.05;5.00;;;17.80;99.90;;;;;;5134686;28;20043;-75
2022/06/04 06:14:29;;;;;;;9.95;4.50;;;17.90;99.90;;;;;;5135192;28;20070;-77
2022/06/04 06:17:02;;;;;;;10.68;4.28;;;18.00;99.90;;;;;;5134100;28;20509;-76
2022/06/04 06:19:34;;;;;;;11.15;4.38;;;18.10;99.90;;;;;;5135689;28;20050;-78
2022/06/04 06:22:07;;;;;;;8.20;4.00;;;18.20;99.90;;;;;;5134988;28;20050;-75
2022/06/04 06:24:39;;;;;;;10.88;4.72;;;18.30;99.90;;;;;;5136417;28;20046;-76
2022/06/04 06:27:11;;;;;;;7.55;4.10;;;18.50;99.90;;;;;;5165051;28;20069;-76
2022/06/04 06:29:44;;;;;;;7.95;3.35;;;18.60;99.90;;;;;;5134202;28;20402;-74
2022/06/04 06:32:16;;;;;;;6.63;3.67;;;18.80;99.90;;;;;;5136436;28;20039;-76
2022/06/04 06:34:49;;;;;;;9.48;3.42;;;18.90;99.90;;;;;;5133587;28;20043;-75
2022/06/04 06:37:21;;;;;;;10.13;4.50;;;19.10;99.90;;;;;;5115897;28;20050;-78
2022/06/04 06:39:55;;;;;;;8.80;3.47;;;19.20;99.90;;;;;;5144564;28;20046;-75
2022/06/04 06:42:28;;;;;;;5.97;3.25;;;19.20;99.90;;;;;;5217468;28;20054;-77
2022/06/04 06:45:09;;;;;;;10.20;3.95;;;19.20;99.90;;;;;;5127591;28;20510;-75
2022/06/04 06:47:43;;;;;;;8.10;3.53;;;19.20;99.90;;;;;;5137411;28;20057;-75
2022/06/04 06:50:16;;;;;;;5.10;3.70;;;19.30;99.90;;;;;;5207725;28;20053;-75
2022/06/04 06:52:49;;;;;;;;;;;19.50;99.90;;;;;;5174472;28;20070;-76
2022/06/04 06:55:21;;;;;;;9.35;3.67;;;19.60;99.90;;;;;;5136079;28;19926;-79
2022/06/04 06:57:53;;;;;;;12.43;4.10;;;19.70;99.90;;;;;;5135667;28;22201;-76
2022/06/04 07:00:26;;;;;;;7.25;3.90;;;19.70;99.90;;;;;;5137038;28;20046;-75
2022/06/04 07:02:58;;;;;;;6.45;4.00;;;19.80;99.90;;;;;;5134156;28;20057;-76
2022/06/04 07:05:31;;;;;;;7.07;4.07;;;19.90;99.90;;;;;;5138648;28;20061;-75
2022/06/04 07:08:04;;;;;;;9.48;3.53;;;20.10;99.90;;;;;;5137357;28;20058;-75
2022/06/04 07:10:36;;;;;;;12.63;3.80;;;20.20;99.90;;;;;;5136826;28;20046;-74
2022/06/04 07:13:09;;;;;;;7.60;3.80;;;20.30;99.90;;;;;;5138115;28;20325;-75
2022/06/04 07:15:43;;;;;;;8.38;3.83;;;20.40;99.90;;;;;;5141218;28;20059;-73
2022/06/04 07:18:16;;;;;;;8.45;3.90;;;20.40;99.90;;;;;;5136967;28;20050;-74
2022/06/04 07:20:49;;;;;;;5.43;3.37;;;20.40;99.90;;;;;;5141092;28;20051;-74
2022/06/04 07:23:21;;;;;;;13.13;3.83;;;20.40;99.90;;;;;;5137918;28;20058;-76
2022/06/04 07:25:54;;;;;;;10.27;3.72;;;20.40;99.90;;;;;;5136673;28;20040;-74
2022/06/04 07:28:26;;;;;;;5.60;3.88;;;20.40;99.90;;;;;;5179947;28;20046;-74
2022/06/04 07:30:59;;;;;;;7.50;4.07;;;20.40;99.90;;;;;;5184300;28;20054;-77
2022/06/04 07:33:32;;;;;;;6.35;3.42;;;20.40;99.90;;;;;;5136490;28;20039;-75
2022/06/04 07:36:05;;;;;;;5.80;3.78;;;20.40;99.90;;;;;;5136298;28;20874;-75
2022/06/04 07:38:37;;;;;;;7.60;4.03;;;20.40;99.90;;;;;;5135243;28;20047;-75
2022/06/04 07:41:17;;;;;;;5.60;3.38;;;20.40;99.90;;;;;;5136880;28;20417;-75
2022/06/04 07:43:50;;;;;;;7.85;3.65;;;20.40;99.90;;;;;;5148292;28;20043;-77
2022/06/04 07:46:25;;;;;;;5.45;3.22;;;20.40;99.90;;;;;;5133806;28;20042;-75
2022/06/04 07:49:00;;;;;;;9.20;4.07;;;20.50;99.90;;;;;;5168896;28;20042;-76
2022/06/04 07:51:34;;;;;;;5.90;3.92;;;20.60;99.90;;;;;;5145038;28;20061;-76
2022/06/04 07:54:08;;;;;;;;;;;20.90;99.90;;;;;;5165691;28;20394;-77
2022/06/04 07:56:40;;;;;;;;;;;21.10;99.90;;;;;;5139369;28;19929;-74
2022/06/04 07:59:16;;;;;;;6.40;2.70;;;21.40;99.90;;;;;;5154141;28;19944;-76
2022/06/04 08:01:48;;;;;;;8.95;2.60;;;21.60;99.90;;;;;;5143337;28;20047;-73
2022/06/04 08:04:21;;;;;;;8.55;3.58;;;21.60;99.90;;;;;;5139757;28;20050;-76
2022/06/04 08:06:54;;;;;;;3.35;2.20;;;21.40;99.90;;;;;;5140335;28;20081;-75
2022/06/04 08:09:26;;;;;;;8.25;2.42;;;21.10;99.90;;;;;;5139358;28;20062;-74
2022/06/04 08:12:00;;;;;;;5.35;2.42;;;21.10;99.90;;;;;;5143293;28;20440;-74
2022/06/04 08:14:32;;;;;;;7.50;2.22;;;21.00;99.90;;;;;;5144756;28;20050;-75
2022/06/04 08:17:04;;;;;;;7.97;2.35;;;20.90;99.90;;;;;;5142694;28;20064;-74
2022/06/04 08:19:37;;;;;;;2.25;2.05;;;20.80;99.90;;;;;;5138290;28;20043;-74
2022/06/04 08:22:11;;;;;;;4.40;2.55;;;20.70;99.90;;;;;;5158104;28;20062;-74
2022/06/04 08:24:43;;;;;;;3.22;2.35;;;20.70;99.90;;;;;;5141021;28;20498;-77
2022/06/04 08:27:17;;;;;;;5.03;2.53;;;20.80;99.90;;;;;;5142042;28;20069;-78
2022/06/04 08:29:49;;;;;;;3.70;2.30;;;20.80;99.90;;;;;;5143923;28;20050;-75
2022/06/04 08:32:32;;;;;;;10.23;2.45;;;20.80;99.90;;;;;;5145005;28;20114;-75
2022/06/04 08:35:04;;;;;;;4.13;2.40;;;21.00;99.90;;;;;;5141460;28;20050;-76
2022/06/04 08:37:37;;;;;;;3.78;2.67;;;21.00;99.90;;;;;;5144062;28;20057;-75
2022/06/04 08:40:26;;;;;;;8.50;2.47;;;21.20;99.90;;;;;;5147025;28;20046;-75
2022/06/04 08:43:29;;;;;;;4.53;2.53;;;21.50;99.90;;;;;;5147982;28;20069;-77
2022/06/04 08:46:08;;;;;;;5.23;2.57;;;21.50;99.50;;;;;;5144594;28;20050;-76
2022/06/04 08:48:43;;;;;;;4.88;2.05;;;21.50;99.90;;;;;;5128169;28;20058;-79
2022/06/04 08:51:25;;;;;;;3.47;2.17;;;21.40;99.30;;;;;;5141058;28;20065;-75
2022/06/04 08:57:32;;;;;;;5.70;3.23;;;21.40;99.20;;;;;;5145349;28;20054;-75
2022/06/04 09:00:00;;;;;;;4.40;2.40;;;21.60;95.80;;;;;;5144725;28;21287;-76
2022/06/04 09:03:00;;;;;;;4.13;2.47;;;21.60;96.40;;;;;;5203923;28;20457;-77
2022/06/04 09:05:54;;;;;;;5.15;2.10;;;21.80;97.50;;;;;;5130871;28;20047;-75
2022/06/04 09:08:46;;;;;;;6.15;2.30;;;21.90;93.90;;;;;;5133965;28;20061;-77
2022/06/04 09:11:29;;;;;;;5.68;2.45;;;22.10;93.60;;;;;;5136861;28;20063;-76
2022/06/04 09:14:05;;;;;;;5.82;2.20;;;22.20;94.40;;;;;;5133866;28;20510;-77
2022/06/04 09:16:41;;;;;;;4.40;2.05;;;22.30;92.70;;;;;;5135803;28;20042;-77
2022/06/04 09:19:17;;;;;;;3.53;2.53;;;22.40;91.90;;;;;;5142257;28;20937;-76
2022/06/04 09:21:52;;;;;;;5.82;2.10;;;22.50;93.00;;;;;;5137128;28;20450;-77
2022/06/04 09:24:25;;;;;;;4.20;2.33;;;22.70;91.80;;;;;;5135558;28;20055;-77
2022/06/04 09:27:03;;;;;;;;;;;22.60;90.40;;;;;;5137732;28;20051;-76
2022/06/04 09:30:08;;;;;;;4.78;2.60;;;22.70;92.00;;;;;;5139509;28;19926;-78
2022/06/04 09:32:59;;;;;;;3.60;2.20;;;22.90;92.00;;;;;;5138557;28;20042;-77
2022/06/04 09:35:37;;;;;;;5.78;2.28;;;23.10;88.80;;;;;;5135946;28;20051;-76
2022/06/04 09:38:25;;;;;;;5.70;2.00;;;23.20;89.80;;;;;;5210506;28;20414;-76
2022/06/04 09:40:58;;;;;;;3.70;1.98;;;23.20;83.30;;;;;;5173503;28;20046;-76
2022/06/04 09:43:31;;;;;;;4.30;2.10;;;23.40;87.10;;;;;;5138275;28;20054;-78
2022/06/04 09:46:09;;;;;;;7.75;2.00;;;23.50;83.50;;;;;;5136609;28;20050;-77
2022/06/04 09:48:50;;;;;;;3.67;1.90;;;23.50;83.80;;;;;;5142662;28;20051;-76
2022/06/04 09:51:28;;;;;;;9.35;2.75;;;23.40;80.80;;;;;;5133710;28;20054;-77
2022/06/04 09:54:05;;;;;;;3.70;2.20;;;23.50;82.40;;;;;;5140323;28;20043;-76
2022/06/04 09:56:43;;;;;;;4.93;2.00;;;23.60;84.10;;;;;;5190151;28;20053;-77
2022/06/04 09:59:28;;;;;;;3.75;1.98;;;23.70;85.50;;;;;;5135473;28;20047;-76
2022/06/04 10:02:15;;;;;;;3.83;2.03;;;23.80;82.40;;;;;;5145466;28;20430;-77
2022/06/04 10:04:57;;;;;;;5.30;1.95;;;23.70;80.60;;;;;;5133418;28;20046;-77
2022/06/04 10:07:34;;;;;;;3.17;1.75;;;23.80;80.00;;;;;;5136198;28;20093;-76
2022/06/04 10:10:21;;;;;;;5.55;2.10;;;24.00;80.10;;;;;;5138501;28;20418;-77
2022/06/04 10:15:49;;;;;;;3.83;1.98;;;24.10;79.20;;;;;;5131047;28;20414;-76
2022/06/04 10:18:31;;;;;;;3.72;2.10;;;24.30;79.90;;;;;;5137424;28;20753;-76
2022/06/04 10:21:06;;;;;;;10.20;2.30;;;24.60;80.60;;;;;;5143335;28;21476;-76
2022/06/04 10:23:48;;;;;;;3.22;1.60;;;24.80;78.30;;;;;;5151747;28;20053;-76
2022/06/04 10:26:31;;;;;;;3.13;1.90;;;25.20;77.00;;;;;;5134315;28;20050;-78
2022/06/04 10:29:28;;;;;;;2.80;1.92;;;25.50;76.80;;;;;;5136559;28;20054;-80
2022/06/04 10:32:14;;;;;;;4.63;2.22;;;25.70;73.40;;;;;;5132548;28;20058;-75
2022/06/04 10:35:16;;;;;;;3.63;2.45;;;26.00;77.00;;;;;;5136665;28;20046;-75
2022/06/04 10:38:19;;;;;;;4.43;2.28;;;26.50;73.80;;;;;;5134306;28;20039;-76
2022/06/04 10:41:11;;;;;;;5.22;2.40;;;26.60;75.80;;;;;;5137263;28;20058;-75
2022/06/04 10:44:20;;;;;;;8.88;3.30;;;26.60;69.40;;;;;;5112459;28;20054;-77
2022/06/04 10:47:24;;;;;;;5.30;2.10;;;26.80;68.50;;;;;;5139383;28;20047;-75
2022/06/04 10:50:16;;;;;;;4.07;2.40;;;27.20;70.30;;;;;;5138335;28;20039;-76
2022/06/04 10:52:56;;;;;;;3.97;2.53;;;27.40;69.80;;;;;;5200353;28;20057;-77
2022/06/04 10:55:44;;;;;;;5.40;2.70;;;27.70;70.70;;;;;;5146694;28;20062;-78
2022/06/04 10:58:20;;;;;;;4.20;2.45;;;27.80;66.40;;;;;;5138236;28;20050;-77
2022/06/04 11:01:15;;;;;;;5.95;2.22;;;28.00;67.30;;;;;;5132557;28;20050;-80
2022/06/04 11:04:00;;;;;;;5.60;2.40;;;28.30;66.60;;;;;;5135016;28;20062;-75
2022/06/04 11:06:40;;;;;;;4.53;2.38;;;28.00;63.80;;;;;;5159000;28;20070;-76
2022/06/04 11:09:16;;;;;;;13.55;11.77;;;28.10;65.10;;;;;;5136468;28;20047;-76
2022/06/04 11:12:01;;;;;;;10.82;7.65;;;28.30;64.40;;;;;;5130986;28;20051;-75
2022/06/04 11:14:48;;;;;;;10.80;7.43;;;28.40;64.40;;;;;;5136729;28;20058;-76
2022/06/04 11:17:25;;;;;;;6.93;5.95;;;28.70;64.50;;;;;;5127005;28;20548;-78
2022/06/04 11:20:10;;;;;;;5.93;4.82;;;29.10;63.20;;;;;;5133834;28;20051;-76
2022/06/04 11:22:56;;;;;;;4.78;2.88;;;29.10;62.90;;;;;;5138484;28;20062;-75
2022/06/04 11:25:32;;;;;;;7.78;3.65;;;29.20;62.10;;;;;;5135104;28;20046;-77
2022/06/04 11:28:12;;;;;;;3.33;2.83;;;29.20;61.70;;;;;;5179866;28;20703;-77
2022/06/04 11:30:50;;;;;;;4.30;2.20;;;29.30;61.40;;;;;;5210230;28;20576;-75
2022/06/04 11:33:46;;;;;;;5.43;2.58;;;29.50;61.00;;;;;;5139775;28;20048;-75
2022/06/04 11:36:52;;;;;;;6.70;2.80;;;29.50;60.50;;;;;;5141472;28;20073;-81
2022/06/04 11:39:35;;;;;;;6.38;2.55;;;29.50;59.30;;;;;;5133397;28;20042;-75
2022/06/04 11:42:41;;;;;;;4.22;2.80;;;29.70;61.90;;;;;;5133777;28;20049;-76
2022/06/04 11:45:23;;;;;;;4.78;2.60;;;29.90;60.60;;;;;;5140241;28;20057;-78
2022/06/04 11:48:17;;;;;;;6.30;2.80;;;30.40;60.30;;;;;;5134317;28;20531;-75
2022/06/04 11:51:09;;;;;;;4.60;3.10;;;30.30;58.20;;;;;;5144118;28;20410;-77
2022/06/04 11:53:53;;;;;;;4.95;2.60;;;30.40;59.30;;;;;;5143205;28;20038;-75
2022/06/04 11:56:41;;;;;;;8.20;3.03;;;30.50;60.30;;;;;;5158948;28;20506;-76
2022/06/04 11:59:40;;;;;;;4.68;2.65;;;30.50;59.30;;;;;;5133169;28;20042;-76
2022/06/04 12:02:22;;;;;;;8.27;2.90;;;30.30;59.80;;;;;;5135469;28;20069;-77
2022/06/04 12:05:16;;;;;;;8.68;2.90;;;30.30;60.30;;;;;;5133329;28;20051;-79
2022/06/04 12:07:53;;;;;;;7.60;3.00;;;30.30;59.10;;;;;;5135788;28;20418;-77
2022/06/04 12:10:55;;;;;;;4.88;3.15;;;30.60;59.80;;;;;;5133721;28;20061;-77
2022/06/04 12:13:52;;;;;;;7.03;3.20;;;30.90;59.30;;;;;;5134267;28;20086;-76
2022/06/04 12:16:34;;;;;;;4.07;3.03;;;30.80;55.80;;;;;;5207397;28;20050;-77
2022/06/04 12:25:21;;;;;;;7.78;3.10;;;31.40;55.90;;;;;;5135608;28;20054;-79
2022/06/04 12:27:57;;;;;;;4.55;2.58;;;31.30;56.90;;;;;;5135195;28;20051;-76
2022/06/04 12:30:46;;;;;;;4.88;2.88;;;31.50;57.50;;;;;;5132483;28;20970;-76
2022/06/04 12:33:33;;;;;;;4.75;3.00;;;31.20;57.50;;;;;;5139311;28;20050;-76
2022/06/04 12:36:12;;;;;;;6.57;3.00;;;31.40;56.10;;;;;;5162317;28;20486;-76
2022/06/04 12:38:46;;;;;;;4.53;3.10;;;31.40;58.50;;;;;;5133770;28;20048;-77
2022/06/04 12:41:20;;;;;;;5.53;3.22;;;31.60;57.80;;;;;;5132577;28;20061;-75
2022/06/04 12:43:57;;;;;;;6.57;2.95;;;31.80;57.10;;;;;;5132458;28;20393;-78
2022/06/04 12:46:33;;;;;;;7.97;3.25;;;31.90;55.50;;;;;;5138788;28;20057;-76
2022/06/04 12:49:25;;;;;;;5.75;2.90;;;32.00;55.70;;;;;;5146071;28;20779;-76
2022/06/04 12:52:22;;;;;;;5.78;2.90;;;32.00;54.00;;;;;;5141210;28;20721;-77
2022/06/04 12:55:05;;;;;;;7.15;2.78;;;32.10;55.70;;;;;;5184892;28;20502;-76
2022/06/04 12:57:53;;;;;;;5.03;2.90;;;32.00;53.80;;;;;;5139725;28;20413;-77
2022/06/04 13:00:41;;;;;;;6.50;2.85;;;32.30;53.40;;;;;;5143893;28;20050;-78
2022/06/04 13:03:28;;;;;;;7.60;2.90;;;32.50;56.10;;;;;;5141387;28;20035;-76
2022/06/04 13:06:12;;;;;;;3.65;2.72;;;32.40;56.90;;;;;;5173058;28;20039;-76
2022/06/04 13:08:57;;;;;;;3.83;2.40;;;32.20;54.00;;;;;;5140341;28;20061;-76
2022/06/04 13:11:51;;;;;;;5.25;2.92;;;32.40;54.70;;;;;;5140646;28;20502;-77
2022/06/04 13:14:34;;;;;;;4.20;3.20;;;32.50;54.60;;;;;;5144059;28;20046;-76
2022/06/04 13:17:19;;;;;;;5.00;2.85;;;31.90;55.50;;;;;;5142415;28;20420;-74
2022/06/04 13:20:09;;;;;;;5.55;2.95;;;32.20;57.40;;;;;;5142586;28;20046;-74
2022/06/04 13:22:50;;;;;;;8.85;2.80;;;32.30;54.50;;;;;;5142830;28;20083;-75
2022/06/04 13:25:34;;;;;;;4.53;2.83;;;32.50;54.10;;;;;;5144897;28;20066;-77
2022/06/04 13:28:30;;;;;;;5.93;2.70;;;32.60;54.10;;;;;;5144387;28;20530;-77
2022/06/04 13:31:06;;;;;;;6.90;2.75;;;32.90;54.20;;;;;;5143605;28;20740;-77
2022/06/04 13:33:38;;;;;;;7.85;2.72;;;32.70;52.90;;;;;;5142017;28;20046;-80
2022/06/04 13:36:13;;;;;;;6.47;2.63;;;33.00;52.50;;;;;;5137279;28;20409;-74
2022/06/04 13:38:47;;;;;;;5.55;2.80;;;32.60;52.70;;;;;;5138139;28;20042;-76
2022/06/04 13:44:37;;;;;;;5.25;2.28;;;32.50;53.20;;;;;;5135252;28;20062;-75
2022/06/04 13:47:10;;;;;;;5.28;2.40;;;32.40;52.20;;;;;;5137716;28;20051;-76
2022/06/04 13:49:44;;;;;;;7.70;2.20;;;32.40;53.50;;;;;;5137413;28;20051;-78
2022/06/04 13:52:24;;;;;;;6.72;2.38;;;32.60;52.20;;;;;;5134441;28;20051;-74
2022/06/04 13:55:00;;;;;;;7.60;2.28;;;32.60;52.40;;;;;;5136395;28;20050;-76
2022/06/04 13:57:37;;;;;;;4.22;2.15;;;32.90;54.80;;;;;;5132678;28;20054;-74
2022/06/04 14:00:19;;;;;;;3.58;2.08;;;32.80;52.40;;;;;;5135657;28;20042;-77
2022/06/04 14:03:17;;;;;;;3.42;2.03;;;32.90;53.50;;;;;;5134081;28;20043;-74
2022/06/04 14:05:54;;;;;;;4.10;2.47;;;32.60;53.80;;;;;;5128983;28;20046;-76
2022/06/04 14:08:33;;;;;;;6.22;2.67;;;32.60;51.80;;;;;;5130848;28;22204;-74